sensor_id;sensor_type;location;lat;lon;timestamp;temperature;humidity
27870;DHT22;15225;50.730;4.244;2024-01-25T17:24:18;10.30;99.90
27870;DHT22;15225;50.730;4.244;2024-01-25T17:26:45;12.00;92.30
27870;DHT22;15225;50.730;4.244;2024-01-25T17:29:10;12.20;79.30
27870;DHT22;15225;50.730;4.244;2024-01-25T17:31:36;12.50;58.50
27870;DHT22;15225;50.730;4.244;2024-01-25T17:34:02;12.60;49.30
27870;DHT22;15225;50.730;4.244;2024-01-25T17:36:28;12.80;41.80
27870;DHT22;15225;50.730;4.244;2024-01-25T17:38:53;12.80;39.80
27870;DHT22;15225;50.730;4.244;2024-01-25T17:41:19;13.10;33.10
27870;DHT22;15225;50.730;4.244;2024-01-25T17:43:45;13.30;20.60
27870;DHT22;15225;50.730;4.244;2024-01-25T17:46:11;13.30;18.70
27870;DHT22;15225;50.730;4.244;2024-01-25T17:48:37;13.20;20.80
27870;DHT22;15225;50.730;4.244;2024-01-25T17:51:04;13.20;20.70
27870;DHT22;15225;50.730;4.244;2024-01-25T17:53:29;13.10;21.20
27870;DHT22;15225;50.730;4.244;2024-01-25T17:55:56;13.00;26.70
27870;DHT22;15225;50.730;4.244;2024-01-25T17:58:22;13.10;22.30
27870;DHT22;15225;50.730;4.244;2024-01-25T18:00:52;13.00;26.80
27870;DHT22;15225;50.730;4.244;2024-01-25T18:06:40;13.00;29.20
27870;DHT22;15225;50.730;4.244;2024-01-25T18:09:06;13.00;24.10
27870;DHT22;15225;50.730;4.244;2024-01-25T18:11:31;13.00;26.10
27870;DHT22;15225;50.730;4.244;2024-01-25T18:13:57;13.00;25.00
27870;DHT22;15225;50.730;4.244;2024-01-25T18:16:23;13.00;28.10
27870;DHT22;15225;50.730;4.244;2024-01-25T18:18:48;13.00;27.70
27870;DHT22;15225;50.730;4.244;2024-01-25T18:21:14;13.20;22.60
27870;DHT22;15225;50.730;4.244;2024-01-25T18:23:39;13.10;24.60
27870;DHT22;15225;50.730;4.244;2024-01-25T18:26:05;13.00;30.50
27870;DHT22;15225;50.730;4.244;2024-01-25T18:28:31;13.00;29.80
27870;DHT22;15225;50.730;4.244;2024-01-25T18:30:56;12.90;36.10
27870;DHT22;15225;50.730;4.244;2024-01-25T18:33:23;12.90;34.50
27870;DHT22;15225;50.730;4.244;2024-01-25T18:35:49;12.90;36.90
27870;DHT22;15225;50.730;4.244;2024-01-25T18:38:15;12.80;37.50
27870;DHT22;15225;50.730;4.244;2024-01-25T18:40:41;12.70;41.30
27870;DHT22;15225;50.730;4.244;2024-01-25T18:43:06;12.70;43.70
27870;DHT22;15225;50.730;4.244;2024-01-25T18:45:32;12.80;41.20
27870;DHT22;15225;50.730;4.244;2024-01-25T18:47:58;12.80;39.60
27870;DHT22;15225;50.730;4.244;2024-01-25T18:50:24;12.90;44.00
27870;DHT22;15225;50.730;4.244;2024-01-25T18:52:49;13.00;33.00
27870;DHT22;15225;50.730;4.244;2024-01-25T18:55:16;13.10;28.10
27870;DHT22;15225;50.730;4.244;2024-01-25T18:57:42;13.20;24.60
27870;DHT22;15225;50.730;4.244;2024-01-25T19:00:09;13.20;21.20
27870;DHT22;15225;50.730;4.244;2024-01-25T19:02:36;13.20;19.10
27870;DHT22;15225;50.730;4.244;2024-01-25T19:05:02;13.20;19.90
27870;DHT22;15225;50.730;4.244;2024-01-25T19:07:28;13.10;20.00
27870;DHT22;15225;50.730;4.244;2024-01-25T19:09:54;13.00;22.80
27870;DHT22;15225;50.730;4.244;2024-01-25T19:12:20;13.00;24.40
27870;DHT22;15225;50.730;4.244;2024-01-25T19:14:46;13.00;26.70
27870;DHT22;15225;50.730;4.244;2024-01-25T19:17:12;13.00;27.90
27870;DHT22;15225;50.730;4.244;2024-01-25T19:19:37;13.00;23.80
27870;DHT22;15225;50.730;4.244;2024-01-25T19:22:04;13.00;21.60
27870;DHT22;15225;50.730;4.244;2024-01-25T19:24:30;13.00;24.90
27870;DHT22;15225;50.730;4.244;2024-01-25T19:30:20;12.90;33.90
27870;DHT22;15225;50.730;4.244;2024-01-25T19:32:47;12.90;29.90
27870;DHT22;15225;50.730;4.244;2024-01-25T19:35:13;12.90;30.10
27870;DHT22;15225;50.730;4.244;2024-01-25T19:37:38;13.10;23.90
27870;DHT22;15225;50.730;4.244;2024-01-25T19:40:05;13.10;25.90
27870;DHT22;15225;50.730;4.244;2024-01-25T19:42:31;13.00;27.00
27870;DHT22;15225;50.730;4.244;2024-01-25T19:44:56;13.00;26.70
27870;DHT22;15225;50.730;4.244;2024-01-25T19:47:22;12.90;31.30
27870;DHT22;15225;50.730;4.244;2024-01-25T19:49:48;13.00;29.50
27870;DHT22;15225;50.730;4.244;2024-01-25T19:55:41;13.00;31.90
27870;DHT22;15225;50.730;4.244;2024-01-25T19:58:07;12.90;30.20
27870;DHT22;15225;50.730;4.244;2024-01-25T20:00:52;12.80;35.70
27870;DHT22;15225;50.730;4.244;2024-01-25T20:07:10;13.00;34.00
27870;DHT22;15225;50.730;4.244;2024-01-25T20:13:08;13.10;26.10
27870;DHT22;15225;50.730;4.244;2024-01-25T20:18:55;13.10;27.30
27870;DHT22;15225;50.730;4.244;2024-01-25T20:21:21;13.00;27.30
27870;DHT22;15225;50.730;4.244;2024-01-25T20:23:47;12.90;35.60
27870;DHT22;15225;50.730;4.244;2024-01-25T20:26:12;12.90;34.70
27870;DHT22;15225;50.730;4.244;2024-01-25T20:28:40;13.00;31.50
27870;DHT22;15225;50.730;4.244;2024-01-25T20:31:06;13.10;25.80
27870;DHT22;15225;50.730;4.244;2024-01-25T20:33:32;13.30;18.60
27870;DHT22;15225;50.730;4.244;2024-01-25T20:35:58;13.30;18.20
27870;DHT22;15225;50.730;4.244;2024-01-25T20:38:23;13.20;19.10
27870;DHT22;15225;50.730;4.244;2024-01-25T20:40:49;13.10;24.00
27870;DHT22;15225;50.730;4.244;2024-01-25T20:43:15;13.10;27.30
27870;DHT22;15225;50.730;4.244;2024-01-25T20:45:40;13.20;23.70
27870;DHT22;15225;50.730;4.244;2024-01-25T20:48:06;13.20;17.80
27870;DHT22;15225;50.730;4.244;2024-01-25T20:50:32;13.20;20.60
27870;DHT22;15225;50.730;4.244;2024-01-25T20:52:58;13.20;21.10
27870;DHT22;15225;50.730;4.244;2024-01-25T20:55:24;13.20;20.20
27870;DHT22;15225;50.730;4.244;2024-01-25T20:57:50;13.00;27.90
27870;DHT22;15225;50.730;4.244;2024-01-25T21:03:57;13.20;23.40
27870;DHT22;15225;50.730;4.244;2024-01-25T21:09:48;13.30;17.00
27870;DHT22;15225;50.730;4.244;2024-01-25T21:15:37;13.30;10.90
27870;DHT22;15225;50.730;4.244;2024-01-25T21:18:03;13.20;13.60
27870;DHT22;15225;50.730;4.244;2024-01-25T21:20:29;13.10;18.30
27870;DHT22;15225;50.730;4.244;2024-01-25T21:22:55;13.10;22.00
27870;DHT22;15225;50.730;4.244;2024-01-25T21:25:20;13.20;19.00
27870;DHT22;15225;50.730;4.244;2024-01-25T21:27:46;13.20;16.90
27870;DHT22;15225;50.730;4.244;2024-01-25T21:30:12;13.30;13.50
27870;DHT22;15225;50.730;4.244;2024-01-25T21:32:37;13.30;12.40
27870;DHT22;15225;50.730;4.244;2024-01-25T21:35:03;13.30;10.60
27870;DHT22;15225;50.730;4.244;2024-01-25T21:37:30;13.30;15.60
27870;DHT22;15225;50.730;4.244;2024-01-25T21:39:56;13.30;14.90
